Time;durP1;ratioP1;P1;durP2;ratioP2;P2;SDS_P1;SDS_P2;PMS_P1;PMS_P2;Temp;Humidity;BMP_temperature;BMP_pressure;BME280_temperature;BME280_humidity;BME280_pressure;Samples;Min_cycle;Max_cycle;Signal;HPM_P1;HPM_P2
2022/09/03 00:00:01;;;;;;;2.95;2.20;;;;;;;25.03;52.31;100900.28;5114693;28;20047;-73
2022/09/03 00:02:39;;;;;;;3.65;2.40;;;;;;;25.04;52.31;100912.84;5121401;28;20056;-72
2022/09/03 00:05:50;;;;;;;3.88;2.47;;;;;;;25.04;52.38;100907.44;5114727;28;20403;-73
2022/09/03 00:08:41;;;;;;;3.95;2.35;;;;;;;25.04;52.37;100899.31;5031818;28;20060;-73
2022/09/03 00:11:17;;;;;;;3.25;2.42;;;;;;;25.05;52.32;100898.28;5031981;28;20045;-73
2022/09/03 00:13:52;;;;;;;2.92;2.35;;;;;;;25.05;52.35;100897.44;5031953;28;20069;-73
2022/09/03 00:16:22;;;;;;;2.85;2.30;;;;;;;25.05;52.31;100895.56;5031978;28;20053;-73
2022/09/03 00:18:56;;;;;;;3.83;2.17;;;;;;;25.06;52.28;100883.72;5032110;28;20058;-73
2022/09/03 00:21:45;;;;;;;3.20;2.22;;;;;;;25.07;52.55;100887.28;5014789;28;20057;-73
2022/09/03 00:24:17;;;;;;;3.42;2.45;;;;;;;25.07;52.36;100884.56;5032067;28;20056;-73
2022/09/03 00:26:50;;;;;;;4.35;1.98;;;;;;;25.06;52.44;100882.88;5032259;28;20054;-73
2022/09/03 00:29:23;;;;;;;2.90;2.20;;;;;;;25.08;52.58;100886.28;5014718;28;20054;-73
2022/09/03 00:31:57;;;;;;;2.72;2.35;;;;;;;25.08;52.55;100894.41;5032278;28;20068;-73
2022/09/03 00:34:35;;;;;;;3.15;2.20;;;;;;;25.08;52.70;100897.13;5015308;28;20049;-73
2022/09/03 00:37:02;;;;;;;3.38;2.30;;;;;;;25.08;52.63;100905.25;5031571;28;20057;-73
2022/09/03 00:39:30;;;;;;;2.67;2.17;;;;;;;25.09;52.67;100905.09;5087863;28;20052;-73
2022/09/03 00:42:18;;;;;;;2.92;2.35;;;;;;;25.09;52.71;100909.66;5114329;28;20367;-73
2022/09/03 00:45:01;;;;;;;2.88;2.58;;;;;;;25.09;52.68;100910.50;5113932;28;20047;-73
2022/09/03 00:48:07;;;;;;;3.05;2.20;;;;;;;25.10;52.83;100914.06;5112905;28;20054;-73
2022/09/03 00:50:45;;;;;;;2.75;2.38;;;;;;;25.10;52.77;100927.59;5031917;28;20046;-73
2022/09/03 00:53:42;;;;;;;3.05;2.60;;;;;;;25.09;52.77;100924.06;5031324;28;20068;-73
2022/09/03 00:56:34;;;;;;;3.47;2.50;;;;;;;25.10;52.82;100931.16;5011258;28;20464;-73
2022/09/03 00:59:30;;;;;;;3.47;2.90;;;;;;;25.11;52.87;100935.56;5031360;28;20064;-73
2022/09/03 01:02:06;;;;;;;3.05;2.22;;;;;;;25.10;52.81;100928.44;5031954;28;20045;-73
2022/09/03 01:05:01;;;;;;;3.15;2.55;;;;;;;25.11;52.89;100934.72;5031919;28;20117;-73
2022/09/03 01:07:45;;;;;;;3.20;2.75;;;;;;;25.12;53.00;100928.31;5031341;28;20445;-73
2022/09/03 01:10:54;;;;;;;3.25;2.80;;;;;;;25.12;53.10;100931.00;5033880;28;20064;-73
2022/09/03 01:13:38;;;;;;;4.18;2.40;;;;;;;25.11;52.82;100924.72;5035262;28;20048;-73
2022/09/03 01:16:05;;;;;;;2.90;2.22;;;;;;;25.12;53.02;100921.03;5017927;28;20069;-72
2022/09/03 01:18:44;;;;;;;3.78;2.45;;;;;;;25.13;52.84;100924.56;5035302;28;20064;-73
2022/09/03 01:21:12;;;;;;;3.80;2.20;;;;;;;25.13;53.30;100920.00;5019037;28;20072;-73
2022/09/03 01:23:55;;;;;;;3.55;2.47;;;;;;;25.12;53.16;100918.31;5040656;28;20049;-73
2022/09/03 01:26:32;;;;;;;3.55;2.40;;;;;;;25.13;53.30;100920.00;5117919;28;20524;-73
2022/09/03 01:29:11;;;;;;;2.70;2.33;;;;;;;25.13;53.31;100922.72;5117438;28;20044;-73
2022/09/03 01:31:57;;;;;;;4.53;2.80;;;;;;;25.13;53.24;100922.72;5118044;28;20047;-73
2022/09/03 01:34:45;;;;;;;3.60;2.58;;;;;;;25.14;53.27;100932.53;5117406;28;20043;-73
2022/09/03 01:37:31;;;;;;;4.05;2.28;;;;;;;25.13;53.50;100928.13;5097893;28;20051;-73
2022/09/03 01:40:23;;;;;;;4.43;2.33;;;;;;;25.14;53.25;100928.97;5117308;28;20047;-73
2022/09/03 01:43:07;;;;;;;3.50;2.37;;;;;;;25.14;53.43;100926.25;5117350;28;20048;-73
2022/09/03 01:45:58;;;;;;;3.45;2.47;;;;;;;25.14;53.54;100935.22;5117517;28;20371;-73
2022/09/03 01:49:00;;;;;;;3.03;2.42;;;;;;;25.14;53.46;100927.09;5117514;28;20050;-73
2022/09/03 01:51:29;;;;;;;3.40;2.20;;;;;;;25.14;53.36;100935.22;5117185;28;20059;-73
2022/09/03 01:54:11;;;;;;;2.50;2.20;;;;;;;25.15;53.66;100939.63;5116681;28;20390;-73
2022/09/03 01:57:05;;;;;;;2.58;2.30;;;;;;;25.15;53.62;100936.06;5117035;28;20039;-73
2022/09/03 01:59:58;;;;;;;2.97;2.17;;;;;;;25.15;53.70;100926.06;5116894;28;20055;-73
2022/09/03 02:02:27;;;;;;;3.38;2.50;;;;;;;25.15;53.80;100920.66;5117482;28;20058;-73
2022/09/03 02:05:02;;;;;;;3.22;2.30;;;;;;;25.16;53.82;100918.81;5114929;28;20050;-73
2022/09/03 02:07:34;;;;;;;3.50;2.30;;;;;;;25.15;53.70;100915.25;5116572;28;20055;-73
2022/09/03 02:10:06;;;;;;;2.58;2.28;;;;;;;25.15;53.82;100911.69;5117249;28;20459;-73
2022/09/03 02:12:36;;;;;;;5.10;2.92;;;;;;;25.15;53.75;100909.81;5116951;28;20050;-73
2022/09/03 02:15:10;;;;;;;4.40;2.55;;;;;;;25.15;53.74;100900.84;5116784;28;20486;-73
2022/09/03 02:17:41;;;;;;;3.25;2.70;;;;;;;25.15;53.93;100915.25;5116637;28;20047;-73
2022/09/03 02:20:14;;;;;;;2.92;2.33;;;;;;;25.16;53.82;100910.69;5116201;28;20046;-73
2022/09/03 02:22:42;;;;;;;7.20;2.90;;;;;;;25.17;53.81;100906.13;5116550;28;20052;-73
2022/09/03 02:25:10;;;;;;;3.13;2.63;;;;;;;25.15;53.81;100904.41;5116280;28;20044;-73
2022/09/03 02:27:38;;;;;;;4.70;2.45;;;;;;;25.17;53.89;100915.09;5116531;28;20474;-73
2022/09/03 02:30:06;;;;;;;3.05;2.40;;;;;;;25.15;53.96;100904.41;5116568;28;20046;-73
2022/09/03 02:32:33;;;;;;;3.47;2.85;;;;;;;25.17;53.88;100906.97;5116612;28;20364;-73
2022/09/03 02:35:00;;;;;;;4.55;3.03;;;;;;;25.17;53.90;100906.13;5116284;28;20055;-73
2022/09/03 02:37:28;;;;;;;4.72;2.50;;;;;;;25.15;53.94;100915.25;5116191;28;20058;-73
2022/09/03 02:39:55;;;;;;;5.32;2.55;;;;;;;25.16;54.08;100910.69;5116084;28;20078;-73
2022/09/03 02:42:23;;;;;;;4.63;2.42;;;;;;;25.15;54.10;100907.13;5116621;28;20050;-73
2022/09/03 02:44:56;;;;;;;3.08;2.40;;;;;;;25.17;54.23;100919.66;5115171;28;20040;-73
2022/09/03 02:47:29;;;;;;;2.88;2.50;;;;;;;25.17;54.11;100917.81;5116329;28;20043;-73
2022/09/03 02:49:57;;;;;;;4.60;2.20;;;;;;;25.16;54.11;100918.81;5114715;28;20051;-73
2022/09/03 02:52:24;;;;;;;4.93;2.40;;;;;;;25.17;54.18;100925.09;5115749;28;20048;-73
2022/09/03 02:54:51;;;;;;;4.75;2.67;;;;;;;25.17;54.43;100925.94;5115457;28;20055;-73
2022/09/03 02:57:19;;;;;;;3.13;2.38;;;;;;;25.17;54.34;100925.09;5115714;28;20066;-73
2022/09/03 02:59:54;;;;;;;4.45;2.78;;;;;;;25.15;54.19;100936.91;5116370;28;20052;-73
2022/09/03 03:02:21;;;;;;;3.97;2.78;;;;;;;25.17;54.21;100930.50;5114508;28;20044;-73
2022/09/03 03:04:48;;;;;;;3.17;2.55;;;;;;;25.17;54.22;100938.63;5115712;28;20043;-73
2022/09/03 03:07:16;;;;;;;2.80;2.42;;;;;;;25.16;54.15;100932.38;5113706;28;20059;-73
2022/09/03 03:09:43;;;;;;;3.53;2.70;;;;;;;25.17;54.22;100930.50;5115250;28;20047;-73
2022/09/03 03:12:11;;;;;;;3.97;2.50;;;;;;;25.17;54.42;100928.63;5116058;28;20048;-73
2022/09/03 03:14:38;;;;;;;3.72;2.40;;;;;;;25.18;54.36;100929.47;5115431;28;20039;-73
2022/09/03 03:17:06;;;;;;;4.10;2.67;;;;;;;25.18;54.30;100927.63;5115774;28;20066;-73
2022/09/03 03:19:33;;;;;;;5.35;2.90;;;;;;;25.17;54.13;100922.38;5115063;28;20048;-73
2022/09/03 03:22:00;;;;;;;4.10;2.72;;;;;;;25.17;54.19;100930.50;5115642;28;20047;-73
2022/09/03 03:24:28;;;;;;;4.03;2.60;;;;;;;25.18;53.99;100934.91;5115431;28;20039;-73
2022/09/03 03:26:58;;;;;;;3.15;2.75;;;;;;;25.18;54.02;100932.19;5115508;28;20043;-73
2022/09/03 03:29:26;;;;;;;3.90;2.75;;;;;;;25.18;54.16;100929.47;5115519;28;20040;-73
2022/09/03 03:31:54;;;;;;;4.15;2.72;;;;;;;25.18;54.07;100924.91;5114206;28;20054;-73
2022/09/03 03:34:21;;;;;;;3.65;2.60;;;;;;;25.18;54.20;100926.78;5114768;28;20039;-73
2022/09/03 03:36:48;;;;;;;4.82;2.65;;;;;;;25.18;54.08;100930.31;5114542;28;20047;-73
2022/09/03 03:39:15;;;;;;;3.05;2.60;;;;;;;25.18;54.30;100934.91;5114832;28;20047;-73
2022/09/03 03:41:43;;;;;;;4.32;3.10;;;;;;;25.18;54.06;100935.75;5114668;28;20070;-73
2022/09/03 03:44:10;;;;;;;3.47;2.38;;;;;;;25.18;54.10;100943.03;5115324;28;20502;-73
2022/09/03 03:46:40;;;;;;;3.17;2.88;;;;;;;25.18;54.13;100941.16;5114591;28;20042;-73
2022/09/03 03:49:10;;;;;;;4.78;2.70;;;;;;;25.19;54.18;100945.56;5114489;28;20048;-73
2022/09/03 03:51:39;;;;;;;3.47;2.58;;;;;;;25.19;54.02;100942.84;5115319;28;20493;-73
2022/09/03 03:54:07;;;;;;;4.32;2.60;;;;;;;25.19;53.98;100942.00;5113258;28;20054;-73
2022/09/03 03:56:34;;;;;;;3.47;3.15;;;;;;;25.18;54.16;100934.91;5114341;28;20041;-73
2022/09/03 03:59:02;;;;;;;5.18;3.08;;;;;;;25.18;54.21;100932.19;5114389;28;20043;-73
2022/09/03 04:01:30;;;;;;;3.63;3.03;;;;;;;25.18;54.21;100934.91;5114818;28;20044;-73
2022/09/03 04:03:59;;;;;;;3.63;2.70;;;;;;;25.18;54.13;100938.44;5114715;28;20047;-73
2022/09/03 04:06:27;;;;;;;3.15;2.60;;;;;;;25.18;54.23;100935.75;5114570;28;20040;-73
2022/09/03 04:08:54;;;;;;;4.10;2.63;;;;;;;25.19;54.23;100940.13;5114168;28;20040;-73
2022/09/03 04:11:23;;;;;;;3.35;2.70;;;;;;;25.19;54.33;100945.56;5113051;28;20043;-73
2022/09/03 04:13:51;;;;;;;3.63;2.72;;;;;;;25.19;54.27;100942.84;5113457;28;20051;-73
2022/09/03 04:16:24;;;;;;;3.28;2.75;;;;;;;25.18;54.18;100938.44;5113997;28;20113;-72
2022/09/03 04:18:52;;;;;;;;;;;;;;;25.18;53.85;100934.91;5115153;28;20074;-73
2022/09/03 04:21:21;;;;;;;3.88;3.05;;;;;;;25.16;53.53;100937.78;5114264;28;19920;-73
2022/09/03 04:23:50;;;;;;;4.15;3.75;;;;;;;25.09;53.90;100937.59;5114090;28;20047;-73
2022/09/03 04:26:30;;;;;;;6.47;3.35;;;;;;;25.04;53.82;100939.94;5114824;28;20039;-73
2022/09/03 04:28:59;;;;;;;6.70;3.60;;;;;;;24.99;53.88;100950.41;5114777;28;20055;-73
2022/09/03 04:31:27;;;;;;;3.38;3.03;;;;;;;24.97;54.00;100957.03;5113825;28;20493;-73
2022/09/03 04:33:55;;;;;;;4.35;3.45;;;;;;;24.92;54.06;100957.53;5113501;28;20048;-73
2022/09/03 04:36:25;;;;;;;3.80;3.40;;;;;;;24.90;53.97;100960.38;5114006;28;20051;-72
2022/09/03 04:38:54;;;;;;;4.60;3.63;;;;;;;24.87;54.02;100959.84;5114146;28;20407;-73
2022/09/03 04:41:24;;;;;;;3.70;3.35;;;;;;;24.84;54.19;100960.22;5114215;28;20044;-72
2022/09/03 04:43:56;;;;;;;4.43;3.03;;;;;;;24.83;54.25;100958.50;5115847;28;20058;-73
2022/09/03 04:46:34;;;;;;;4.35;3.35;;;;;;;24.81;54.26;100949.69;5118380;28;20043;-73
2022/09/03 04:49:02;;;;;;;4.50;3.55;;;;;;;24.78;54.24;100950.88;5118626;28;20391;-73
2022/09/03 04:51:30;;;;;;;3.55;3.17;;;;;;;24.78;54.20;100948.16;5118229;28;20044;-73
2022/09/03 04:54:00;;;;;;;6.00;3.40;;;;;;;24.77;54.26;100942.91;5117926;28;20050;-73
2022/09/03 04:56:34;;;;;;;4.15;3.72;;;;;;;24.76;54.36;100943.94;5118100;28;20047;-72
2022/09/03 04:59:04;;;;;;;3.58;3.28;;;;;;;24.76;54.29;100955.59;5118464;28;20043;-73
2022/09/03 05:01:33;;;;;;;4.78;3.42;;;;;;;24.75;54.44;100950.34;5118394;28;20044;-73
2022/09/03 05:04:01;;;;;;;4.28;3.80;;;;;;;24.74;54.39;100945.94;5118044;28;20382;-73
2022/09/03 05:06:30;;;;;;;4.35;3.58;;;;;;;24.73;54.50;100941.56;5118007;28;20433;-73
2022/09/03 05:08:58;;;;;;;4.82;3.28;;;;;;;24.72;54.49;100942.56;5118461;28;20051;-73
2022/09/03 05:11:27;;;;;;;5.28;3.20;;;;;;;24.71;54.67;100949.81;5118372;28;20039;-73
2022/09/03 05:13:57;;;;;;;4.00;3.25;;;;;;;24.73;54.38;100952.38;5118125;28;20044;-72
2022/09/03 05:16:27;;;;;;;4.13;3.33;;;;;;;24.72;54.54;100951.53;5116795;28;20471;-73
2022/09/03 05:18:58;;;;;;;4.65;3.20;;;;;;;24.73;54.39;100950.53;5117915;28;20054;-73
2022/09/03 05:21:27;;;;;;;3.67;3.35;;;;;;;24.72;54.31;100953.41;5117749;28;20048;-73
2022/09/03 05:23:55;;;;;;;4.00;3.30;;;;;;;24.72;54.40;100956.94;5117960;28;20395;-73
2022/09/03 05:26:28;;;;;;;3.88;3.47;;;;;;;24.70;54.55;100941.88;5117504;28;20051;-73
2022/09/03 05:28:58;;;;;;;4.32;3.25;;;;;;;24.69;54.53;100932.91;5117518;28;20043;-73
2022/09/03 05:31:28;;;;;;;3.55;3.00;;;;;;;24.71;54.52;100943.56;5118000;28;20044;-72
2022/09/03 05:33:59;;;;;;;5.93;3.60;;;;;;;24.69;54.41;100943.75;5117940;28;20047;-72
2022/09/03 05:36:29;;;;;;;3.80;3.50;;;;;;;24.68;54.52;100942.06;5117672;28;20036;-73
2022/09/03 05:38:58;;;;;;;4.72;3.90;;;;;;;24.67;54.67;100937.63;5117414;28;20368;-73
2022/09/03 05:41:27;;;;;;;5.13;3.75;;;;;;;24.66;54.87;100933.22;5117018;28;20048;-73
2022/09/03 05:43:55;;;;;;;4.28;3.28;;;;;;;24.67;54.66;100933.09;5116977;28;20040;-72
2022/09/03 05:46:31;;;;;;;5.18;3.90;;;;;;;24.66;54.64;100927.81;5116981;28;20035;-73
2022/09/03 05:49:03;;;;;;;4.45;3.10;;;;;;;24.65;54.66;100929.69;5117522;28;20479;-73
2022/09/03 05:51:32;;;;;;;4.20;3.47;;;;;;;24.65;54.75;100943.22;5117318;28;20043;-73
2022/09/03 05:54:00;;;;;;;3.83;3.25;;;;;;;24.65;55.02;100945.91;5116788;28;20054;-73
2022/09/03 05:56:30;;;;;;;4.70;3.47;;;;;;;24.67;54.89;100946.63;5115888;28;20046;-73
2022/09/03 05:59:00;;;;;;;3.92;3.30;;;;;;;24.67;54.92;100956.56;5116979;28;20043;-73
2022/09/03 06:01:31;;;;;;;3.85;3.22;;;;;;;24.67;54.67;100959.28;5115107;28;20055;-73
2022/09/03 06:04:05;;;;;;;4.68;3.17;;;;;;;24.67;54.92;100957.44;5116912;28;20479;-73
2022/09/03 06:06:35;;;;;;;4.65;3.33;;;;;;;24.69;54.71;100948.31;5117085;28;20046;-72
2022/09/03 06:09:06;;;;;;;5.22;3.25;;;;;;;24.68;54.89;100955.59;5117080;28;20054;-73
2022/09/03 06:11:35;;;;;;;4.65;3.40;;;;;;;24.69;54.71;100953.72;5115612;28;20101;-72
2022/09/03 06:14:07;;;;;;;4.47;3.03;;;;;;;24.68;55.02;100952.88;5117081;28;20055;-72
2022/09/03 06:16:37;;;;;;;5.25;3.40;;;;;;;24.68;54.93;100958.28;5116731;28;20055;-73
2022/09/03 06:19:08;;;;;;;3.25;2.95;;;;;;;24.70;55.13;100952.69;5116451;28;20482;-73
2022/09/03 06:21:41;;;;;;;4.68;3.50;;;;;;;24.71;54.91;100955.22;5116456;28;20050;-73
2022/09/03 06:24:19;;;;;;;;;;;;;;;24.72;54.99;100961.53;5117509;28;20051;-73
2022/09/03 06:26:47;;;;;;;5.40;3.47;;;;;;;24.74;55.10;100971.16;5116406;28;19924;-72
2022/09/03 06:29:15;;;;;;;4.03;3.50;;;;;;;24.76;54.83;100965.59;5116375;28;20050;-72
2022/09/03 06:31:42;;;;;;;4.30;3.15;;;;;;;24.78;54.64;100972.53;5116035;28;20039;-72
2022/09/03 06:34:09;;;;;;;4.32;3.30;;;;;;;24.79;54.93;100971.50;5116573;28;20039;-73
2022/09/03 06:36:40;;;;;;;5.28;4.15;;;;;;;24.79;54.76;100974.22;5098063;28;20055;-73
2022/09/03 06:39:07;;;;;;;4.30;3.80;;;;;;;24.80;55.18;100975.94;5116782;28;20040;-73
2022/09/03 06:41:34;;;;;;;4.40;3.60;;;;;;;24.81;55.01;100972.19;5116207;28;20474;-73
2022/09/03 06:44:05;;;;;;;4.60;3.63;;;;;;;24.83;55.09;100969.31;5115826;28;20048;-73
2022/09/03 06:46:35;;;;;;;5.18;3.50;;;;;;;24.83;55.03;100964.78;5114046;28;20483;-73
2022/09/03 06:49:02;;;;;;;4.05;3.10;;;;;;;24.84;55.04;100954.78;5116570;28;20043;-74
2022/09/03 06:51:32;;;;;;;5.78;4.05;;;;;;;24.82;55.17;100938.69;5115946;28;20047;-74
2022/09/03 06:54:10;;;;;;;4.38;3.63;;;;;;;24.82;55.14;100933.28;5114492;28;20047;-73
2022/09/03 06:56:39;;;;;;;5.60;3.70;;;;;;;24.81;55.29;100925.34;5115598;28;20055;-74
2022/09/03 06:59:10;;;;;;;5.25;3.15;;;;;;;24.82;55.64;100932.44;5116696;28;20050;-73
2022/09/03 07:01:39;;;;;;;7.07;3.72;;;;;;;24.80;55.74;100921.78;5116224;28;20048;-73
2022/09/03 07:04:12;;;;;;;4.13;3.50;;;;;;;24.80;55.68;100927.19;5116001;28;20470;-74
2022/09/03 07:06:41;;;;;;;4.93;3.53;;;;;;;24.81;55.84;100926.16;5115135;28;20047;-74
2022/09/03 07:09:11;;;;;;;5.40;4.93;;;;;;;24.80;56.27;100929.91;5115044;28;20059;-74
2022/09/03 07:11:45;;;;;;;5.75;5.00;;;;;;;24.74;56.61;100937.81;5115217;28;20406;-74
2022/09/03 07:14:17;;;;;;;6.38;4.25;;;;;;;24.70;56.77;100950.00;5115066;28;20039;-74
2022/09/03 07:16:45;;;;;;;5.05;4.43;;;;;;;24.67;56.97;100957.44;5115751;28;20044;-74
2022/09/03 07:19:13;;;;;;;7.53;5.28;;;;;;;24.65;57.29;100962.16;5114523;28;20044;-75
2022/09/03 07:21:42;;;;;;;6.65;5.35;;;;;;;24.62;57.30;100967.91;5115329;28;20062;-74
2022/09/03 07:24:17;;;;;;;5.88;4.70;;;;;;;24.61;57.60;100962.66;5115611;28;20051;-74
2022/09/03 07:26:47;;;;;;;7.00;5.85;;;;;;;24.60;57.42;100964.53;5115780;28;20372;-74
2022/09/03 07:29:18;;;;;;;5.43;4.93;;;;;;;24.53;57.76;100974.28;5115460;28;20375;-74
2022/09/03 07:31:59;;;;;;;6.53;3.83;;;;;;;24.46;57.91;100972.41;5115252;28;20051;-75
2022/09/03 07:34:27;;;;;;;5.72;4.65;;;;;;;24.43;57.86;100970.88;5115353;28;20398;-75
2022/09/03 07:36:54;;;;;;;4.45;3.92;;;;;;;24.40;58.03;100957.66;5114762;28;20063;-74
2022/09/03 07:39:22;;;;;;;6.20;4.55;;;;;;;24.42;58.18;100963.75;5115115;28;20054;-74
2022/09/03 07:41:49;;;;;;;6.38;4.57;;;;;;;24.42;58.16;100978.13;5114992;28;20044;-74
2022/09/03 07:44:21;;;;;;;5.03;4.53;;;;;;;24.44;57.96;100972.56;5115072;28;20044;-74
2022/09/03 07:46:49;;;;;;;6.63;4.60;;;;;;;24.46;58.08;100975.09;5113347;28;20055;-74
2022/09/03 07:49:19;;;;;;;7.10;6.25;;;;;;;24.47;58.39;100980.38;5114999;28;20047;-74
2022/09/03 07:51:49;;;;;;;5.30;4.72;;;;;;;24.44;58.53;100977.16;5114800;28;20043;-74
2022/09/03 07:54:17;;;;;;;8.15;6.25;;;;;;;24.43;58.34;100984.41;5115174;28;20043;-74
2022/09/03 07:56:44;;;;;;;8.32;7.15;;;;;;;24.40;58.66;100976.63;5115055;28;20459;-73
2022/09/03 07:59:11;;;;;;;5.32;4.82;;;;;;;24.35;58.68;100976.22;5114835;28;20046;-73
2022/09/03 08:01:39;;;;;;;5.35;4.85;;;;;;;24.34;58.32;100979.91;5114424;28;20043;-74
2022/09/03 08:04:09;;;;;;;9.18;5.03;;;;;;;24.35;58.14;100987.91;5115100;28;20054;-77
2022/09/03 08:06:37;;;;;;;5.70;4.30;;;;;;;24.38;58.44;100976.75;5114521;28;20051;-74
2022/09/03 08:09:07;;;;;;;5.53;5.03;;;;;;;24.40;58.28;100974.75;5112741;28;20517;-73
2022/09/03 08:11:40;;;;;;;10.15;5.32;;;;;;;24.42;58.30;100978.13;5115102;28;20480;-75
2022/09/03 08:14:10;;;;;;;8.98;5.30;;;;;;;24.43;58.36;100976.31;5114490;28;20043;-75
2022/09/03 08:16:41;;;;;;;7.60;4.53;;;;;;;24.45;58.40;100982.38;5113290;28;20058;-74
2022/09/03 08:19:10;;;;;;;5.78;5.15;;;;;;;24.47;58.38;100990.31;5115382;28;20054;-76
2022/09/03 08:21:40;;;;;;;6.45;4.90;;;;;;;24.50;58.08;100980.03;5115656;28;20039;-75
2022/09/03 08:24:09;;;;;;;7.78;6.22;;;;;;;24.51;58.55;100975.47;5115000;28;20386;-77
2022/09/03 08:26:40;;;;;;;9.85;6.40;;;;;;;24.51;59.29;100989.88;5115444;28;20071;-75
2022/09/03 08:29:08;;;;;;;11.32;7.80;;;;;;;24.51;59.10;100992.56;5112908;28;20513;-75
2022/09/03 08:31:35;;;;;;;9.35;5.78;;;;;;;24.49;58.92;100994.56;5114423;28;20043;-74
2022/09/03 08:34:06;;;;;;;8.32;6.82;;;;;;;24.51;59.44;100999.81;5113905;28;20475;-74
2022/09/03 08:36:35;;;;;;;9.68;7.05;;;;;;;24.50;59.75;100995.41;5114205;28;20052;-76
2022/09/03 08:39:08;;;;;;;10.05;6.45;;;;;;;24.48;59.18;100995.59;5114199;28;20047;-76
2022/09/03 08:41:55;;;;;;;7.32;5.93;;;;;;;24.50;59.42;100992.72;5112647;28;20051;-75
2022/09/03 08:44:29;;;;;;;6.80;5.80;;;;;;;24.50;59.22;100988.16;5114100;28;20040;-73
2022/09/03 08:47:08;;;;;;;8.02;5.07;;;;;;;24.51;59.24;100997.13;5113980;28;20046;-74
2022/09/03 08:49:54;;;;;;;6.53;5.82;;;;;;;24.50;58.98;100998.97;5113639;28;20050;-74
2022/09/03 08:52:48;;;;;;;8.23;5.93;;;;;;;24.52;59.26;101010.50;5114206;28;20051;-74
2022/09/03 08:55:55;;;;;;;6.57;5.47;;;;;;;24.52;59.24;101007.78;5112507;28;20047;-76
2022/09/03 08:58:26;;;;;;;6.93;5.28;;;;;;;24.53;59.00;101019.47;5050567;28;20056;-74
2022/09/03 09:01:08;;;;;;;8.15;5.47;;;;;;;24.53;58.69;101011.34;5073870;28;20103;-73
2022/09/03 09:03:57;;;;;;;5.57;4.65;;;;;;;24.54;58.60;101015.75;5065423;28;20056;-73
2022/09/03 09:06:29;;;;;;;6.45;5.72;;;;;;;24.55;58.34;101015.59;5069194;28;20044;-74
2022/09/03 09:09:12;;;;;;;7.28;5.72;;;;;;;24.55;58.58;101026.44;5052811;28;20067;-76
2022/09/03 09:12:00;;;;;;;6.18;5.57;;;;;;;24.55;58.21;101018.31;5051908;28;20390;-73
2022/09/03 09:14:46;;;;;;;7.10;5.47;;;;;;;24.56;58.80;101017.28;5090731;28;20048;-77
2022/09/03 09:17:19;;;;;;;8.07;5.82;;;;;;;24.57;58.67;101012.72;5073383;28;20538;-74
2022/09/03 09:20:08;;;;;;;6.85;5.40;;;;;;;24.58;58.73;101001.72;5085003;28;20064;-73
2022/09/03 09:22:39;;;;;;;6.63;5.30;;;;;;;24.60;58.96;101007.00;5071162;28;20067;-73
2022/09/03 09:25:15;;;;;;;5.60;4.80;;;;;;;24.61;58.78;100997.84;5070882;28;20420;-73
2022/09/03 09:28:08;;;;;;;7.88;5.03;;;;;;;24.63;58.70;100999.41;5058619;28;20059;-75
2022/09/03 09:30:35;;;;;;;;;;;;;;;24.65;58.78;100999.22;5072014;28;20045;-75
2022/09/03 09:33:03;;;;;;;5.25;4.82;;;;;;;24.66;59.04;101001.75;5060273;28;20434;-75
2022/09/03 09:35:30;;;;;;;7.10;5.07;;;;;;;24.66;58.76;101001.75;5113084;27;20055;-74
2022/09/03 09:37:59;;;;;;;7.00;5.70;;;;;;;24.67;59.06;101003.47;5132781;27;20059;-74
2022/09/03 09:40:31;;;;;;;5.95;5.30;;;;;;;24.67;58.95;101008.00;5112496;28;20059;-74
2022/09/03 09:43:25;;;;;;;5.00;4.38;;;;;;;24.70;59.01;101006.84;5096613;28;20384;-73
2022/09/03 09:45:52;;;;;;;5.22;4.72;;;;;;;24.70;59.16;101001.44;5108391;28;20427;-73
2022/09/03 09:48:33;;;;;;;6.22;4.60;;;;;;;24.71;59.22;101008.53;5107349;28;20040;-73
2022/09/03 09:51:10;;;;;;;6.85;4.43;;;;;;;24.72;59.16;100997.56;5097056;28;20048;-74
2022/09/03 09:53:39;;;;;;;5.47;3.92;;;;;;;24.72;58.97;101005.69;5120025;27;20043;-74
2022/09/03 09:56:07;;;;;;;5.25;4.00;;;;;;;24.72;58.68;100997.56;5136647;27;20050;-74
2022/09/03 09:58:35;;;;;;;5.95;3.80;;;;;;;24.74;58.64;101000.09;5135387;27;20069;-73
2022/09/03 10:01:20;;;;;;;6.13;4.28;;;;;;;24.74;58.53;101009.06;5137189;27;20467;-72
2022/09/03 10:03:56;;;;;;;6.32;4.43;;;;;;;24.75;58.44;101010.75;5130333;27;20044;-73
2022/09/03 10:09:15;;;;;;;5.28;4.05;;;;;;;24.75;58.56;101002.63;5096250;28;20055;-73
2022/09/03 10:12:18;;;;;;;5.22;4.22;;;;;;;24.77;58.62;100991.66;5095192;28;20040;-74
2022/09/03 10:15:02;;;;;;;6.55;4.07;;;;;;;24.77;58.27;100997.91;5065958;28;20499;-77
2022/09/03 10:17:54;;;;;;;5.82;3.67;;;;;;;24.78;58.23;101002.31;5095820;28;20476;-75
2022/09/03 10:20:30;;;;;;;5.05;3.85;;;;;;;24.81;58.13;101004.69;5093582;28;20044;-73
2022/09/03 10:23:14;;;;;;;4.93;3.92;;;;;;;24.82;58.21;101005.53;5095101;28;20043;-73
2022/09/03 10:26:06;;;;;;;6.03;3.78;;;;;;;24.83;58.08;101008.09;5092870;28;20055;-73
2022/09/03 10:28:41;;;;;;;4.75;3.28;;;;;;;24.83;57.97;100999.97;5094788;28;20044;-73
2022/09/03 10:31:16;;;;;;;6.40;3.33;;;;;;;24.84;57.93;100995.41;5094453;28;20488;-73
2022/09/03 10:33:56;;;;;;;4.45;3.35;;;;;;;24.86;57.84;101001.50;5094380;28;20052;-73
2022/09/03 10:36:32;;;;;;;4.50;3.53;;;;;;;24.86;57.91;101007.75;5094774;28;20407;-73
2022/09/03 10:39:17;;;;;;;5.03;3.95;;;;;;;24.87;57.89;101008.59;5113795;27;20482;-73
2022/09/03 10:42:21;;;;;;;3.90;3.30;;;;;;;24.87;57.74;100992.34;5117947;27;20044;-73
2022/09/03 10:45:02;;;;;;;5.22;2.97;;;;;;;24.87;57.79;100987.81;5115395;28;20051;-73
2022/09/03 10:47:39;;;;;;;5.47;3.70;;;;;;;24.87;57.79;100993.22;5115670;28;20398;-73
2022/09/03 10:50:25;;;;;;;4.28;3.88;;;;;;;24.89;57.65;100995.75;5097678;28;20040;-73
2022/09/03 10:53:28;;;;;;;3.92;3.53;;;;;;;24.90;57.64;100992.03;5094823;28;20052;-73
2022/09/03 10:56:00;;;;;;;4.80;4.33;;;;;;;24.89;57.70;100984.94;5094906;28;20449;-73
2022/09/03 10:58:39;;;;;;;3.78;3.45;;;;;;;24.90;57.48;100989.31;5094665;28;20048;-73
2022/09/03 11:01:14;;;;;;;3.70;3.40;;;;;;;24.91;57.59;100994.59;5095376;28;20399;-73
2022/09/03 11:03:52;;;;;;;3.97;3.47;;;;;;;24.92;57.76;100995.44;5094782;28;20403;-73
2022/09/03 11:06:26;;;;;;;5.65;3.67;;;;;;;24.92;57.41;100992.72;5094122;28;20483;-73
2022/09/03 11:09:04;;;;;;;6.00;4.00;;;;;;;24.93;57.54;100997.13;5112193;28;20044;-73
2022/09/03 11:11:39;;;;;;;4.38;3.40;;;;;;;24.92;57.54;100990.88;5115287;28;20051;-73
2022/09/03 11:14:08;;;;;;;4.00;3.67;;;;;;;24.93;57.38;100994.41;5114782;28;20062;-73
2022/09/03 11:16:47;;;;;;;4.20;3.15;;;;;;;24.94;57.50;100997.97;5114658;28;20043;-73
2022/09/03 11:19:23;;;;;;;3.92;3.50;;;;;;;24.93;57.38;100986.28;5115158;28;20047;-73
2022/09/03 11:21:52;;;;;;;3.85;3.30;;;;;;;24.95;57.50;100992.38;5114652;28;20051;-73
2022/09/03 11:24:26;;;;;;;3.90;3.13;;;;;;;24.96;57.45;100996.81;5114378;28;20043;-73
2022/09/03 11:27:19;;;;;;;3.70;2.85;;;;;;;24.96;57.42;100991.38;5114973;28;20051;-73
2022/09/03 11:30:09;;;;;;;6.13;3.58;;;;;;;24.97;57.36;100992.22;5106263;28;20052;-73
2022/09/03 11:32:48;;;;;;;5.00;3.42;;;;;;;24.96;57.26;100996.81;5114397;28;20047;-73
2022/09/03 11:35:30;;;;;;;4.07;3.25;;;;;;;24.96;57.25;100994.09;5113256;28;20043;-73
2022/09/03 11:38:00;;;;;;;5.03;3.30;;;;;;;24.98;57.12;100993.91;5114486;28;20047;-73
2022/09/03 11:40:39;;;;;;;4.03;2.95;;;;;;;24.97;57.25;100987.66;5107327;28;20517;-73
2022/09/03 11:43:26;;;;;;;3.47;3.08;;;;;;;24.99;57.26;100987.47;5094176;28;20059;-73
2022/09/03 11:46:21;;;;;;;4.47;3.25;;;;;;;24.99;57.31;101001.03;5094186;28;20399;-73
2022/09/03 11:48:54;;;;;;;3.83;3.38;;;;;;;24.98;57.18;100989.34;5094300;28;20048;-73
2022/09/03 11:51:31;;;;;;;4.32;3.00;;;;;;;24.99;57.10;100985.63;5091973;28;20055;-73
2022/09/03 11:54:11;;;;;;;3.60;3.30;;;;;;;25.01;57.28;100988.19;5094166;27;20399;-73
2022/09/03 11:56:40;;;;;;;3.75;2.80;;;;;;;25.00;57.08;100983.78;5093934;28;20055;-71
2022/09/03 11:59:22;;;;;;;5.72;3.10;;;;;;;25.00;57.09;100981.91;5093553;28;20399;-73
2022/09/03 12:01:52;;;;;;;5.25;3.35;;;;;;;25.02;57.07;100984.44;5092474;28;20510;-73